Autoridad de Aeronautica Civil de Panamá


taf




 

AERÓDROMOS

 

PRONOSTICO DE AERÓDROMO
TAF

AEROPUERTO INTL. DE TOCUMEN:


TAF COR MPTO 280500Z 2806/2912 00000KT 9999 SCT020 BECMG 2807/2811 VRB02KT BECMG 2812/2816 29006KT TEMPO 2816/2818 03014KT BECMG 2818/2822 29004KT=
AEROPUERTO MARCOS A. GELABERT:


TAF AMD MPMG 280300Z 2800/2812 CNL=
AEROPUERTO ENRIQUE MALEK:


TAF AMD MPDA 280300Z 2800/2812 CNL=
AEROPUERTO PANAMA PACIFICO:


TAF AMD MPPA 280300Z 2800/2906 CNL=
AEROPUERTO SCARLETT MARTÍNEZ:


TAF AMD MPSM 280300Z 2800/2906 CNL=


Contador: 1456